Solana — WCY5602 — position and weather

sailwx.info

Track history (hours):
 
Tides and Currents Weather Stations Pressure Air Temp Water Temp Dewpoint Dewpoint Depression Visibility Wind Speed Wind Dir Waves Ship Positions

Solana

Owner: TAURUS MARINE, SAN FRANCISCO, CA. More information available from US FCC via Universal Licensing System and Coast Guard Vessel Documentation Center.

Last reported at 2016-Dec-10 21:33 UTC. Time now 2016-Dec-10 22:31 UTC.
Position N 37°50' W 122°21'.

Length 21 m; draft 3 m.

Type: Ship (hazmat cat A). MMSI: 366969740.

Date/timePositionNaut miles runAvg speedWind from/ knotsBaromVisibWave heightAir tempDewpointWater temp
2016-Dec-10 21:33N 37°50' W 122°21'7 7.4
2016-Dec-10 20:33N 37°43' W 122°20'7 7.0
2016-Dec-10 19:33N 37°36' W 122°16'5 4.9
2016-Dec-10 18:30N 37°33' W 122°12'2 1.8
2016-Dec-10 17:32N 37°31' W 122°12'2 1.6
2016-Dec-10 16:33N 37°32' W 122°12'1 0.6
2016-Dec-10 15:33N 37°32' W 122°12'0 0.1
2016-Dec-10 14:31N 37°32' W 122°12'0 0.1
2016-Dec-10 13:33N 37°32' W 122°12'0 0.2
2016-Dec-10 12:33N 37°32' W 122°12'0 0.0
2016-Dec-10 11:33N 37°32' W 122°12'0 0.1
2016-Dec-10 10:33N 37°32' W 122°12'1 0.7
2016-Dec-10 09:29N 37°31' W 122°13'0 0.2
2016-Dec-10 08:33N 37°31' W 122°13'3 2.8
2016-Dec-10 07:33N 37°33' W 122°11'3 2.9
2016-Dec-10 06:33N 37°31' W 122°13'0 0.3
2016-Dec-10 05:32N 37°30' W 122°13'0 0.1
2016-Dec-10 04:33N 37°30' W 122°13'0 0.1
2016-Dec-10 03:33N 37°30' W 122°13'0 0.1
2016-Dec-10 02:33N 37°30' W 122°13'2 2.0
2016-Dec-10 01:33N 37°32' W 122°12'1 1.4
2016-Dec-10 00:33N 37°33' W 122°12'3 2.8
2016-Dec-09 23:32N 37°31' W 122°13'1 1.2
2016-Dec-09 22:32N 37°32' W 122°12'6 6.2
2016-Dec-09 21:33N 37°36' W 122°17'7 6.5
2016-Dec-09 20:33N 37°42' W 122°20'6 5.9
2016-Dec-09 19:33N 37°48' W 122°21'2 1.6
2016-Dec-09 18:33N 37°50' W 122°21'4 4.1
2016-Dec-09 17:33N 37°46' W 122°21'7 6.6
2016-Dec-09 16:33N 37°39' W 122°19'6 5.8
2016-Dec-09 15:33N 37°35' W 122°14'4 3.9
2016-Dec-09 14:33N 37°31' W 122°12'1 0.8
2016-Dec-09 13:33N 37°30' W 122°13'0 0.0
2016-Dec-09 12:33N 37°30' W 122°13'0 0.0
2016-Dec-09 11:33N 37°30' W 122°13'0 0.0
2016-Dec-09 10:33N 37°30' W 122°13'0 0.0
2016-Dec-09 09:33N 37°30' W 122°13'0 0.1
2016-Dec-09 08:33N 37°30' W 122°13'0 0.1
2016-Dec-09 07:33N 37°31' W 122°13'0 0.1
2016-Dec-09 06:32N 37°31' W 122°13'0 0.2
2016-Dec-09 05:34N 37°30' W 122°13'0 0.1
2016-Dec-09 04:33N 37°30' W 122°13'0 0.1
2016-Dec-09 03:33N 37°30' W 122°13'0 0.0
2016-Dec-09 02:32N 37°30' W 122°13'3 3.2
2016-Dec-09 01:33N 37°33' W 122°11'3 3.1
2016-Dec-09 00:33N 37°30' W 122°13'4 3.7
2016-Dec-08 23:33N 37°34' W 122°13'4 3.7
2016-Dec-08 22:33N 37°30' W 122°13'0 0.0
2016-Dec-08 21:34N 37°30' W 122°13'0 0.1
2016-Dec-08 20:29N 37°31' W 122°13'0 0.1
2016-Dec-08 19:33N 37°31' W 122°13'0 0.0
2016-Dec-08 18:33N 37°31' W 122°13'0 0.1
2016-Dec-08 17:33N 37°31' W 122°13'0 0.1
2016-Dec-08 16:34N 37°30' W 122°13'3 2.9
2016-Dec-08 15:34N 37°33' W 122°12'3 2.9
2016-Dec-08 14:33N 37°30' W 122°13'0 0.0
2016-Dec-08 13:33N 37°30' W 122°13'3 2.6
2016-Dec-08 12:33N 37°33' W 122°11'1 1.3
2016-Dec-08 11:33N 37°32' W 122°12'1 1.1
2016-Dec-08 10:32N 37°33' W 122°12'8 7.8
2016-Dec-08 09:33N 37°38' W 122°18'8 8.2
2016-Dec-08 08:33N 37°46' W 122°22'8 8.1
2016-Dec-08 07:33N 37°54' W 122°24'8 8.3
2016-Dec-08 06:33N 38°02' W 122°22'23 3.6
2016-Dec-08 00:18N 38°03' W 121°53'10 5.4
2016-Dec-07 22:30N 38°03' W 122°05'5 4.6
2016-Dec-07 21:32N 38°03' W 122°11'5 4.8
2016-Dec-07 20:32N 38°03' W 122°17'5 5.0
2016-Dec-07 19:33N 38°01' W 122°23'5 5.2
2016-Dec-07 18:33N 37°57' W 122°26'6 6.1
2016-Dec-07 17:33N 37°51' W 122°24'8 8.4
2016-Dec-07 16:33N 37°43' W 122°20'7 7.3
2016-Dec-07 15:33N 37°36' W 122°17'6 6.0
2016-Dec-07 14:33N 37°31' W 122°12'1 1.3
2016-Dec-07 13:33N 37°30' W 122°13'5 4.9
2016-Dec-07 12:33N 37°35' W 122°15'6 5.7
2016-Dec-07 11:33N 37°39' W 122°19'5 5.3
2016-Dec-07 10:33N 37°44' W 122°21'6 6.2
2016-Dec-07 09:33N 37°50' W 122°23'6 5.9
2016-Dec-07 08:33N 37°56' W 122°26'5 4.6
2016-Dec-07 07:33N 38°01' W 122°24'5 5.0
2016-Dec-07 06:34N 38°03' W 122°19'11 1.8
2016-Dec-07 00:31N 38°03' W 122°05'6 6.7
2016-Dec-06 23:33N 38°04' W 122°13'7 7.1
2016-Dec-06 22:33N 38°02' W 122°22'7 6.9
2016-Dec-06 21:33N 37°56' W 122°26'7 7.0
2016-Dec-06 20:33N 37°49' W 122°23'14 7.2
2016-Dec-06 18:33N 37°36' W 122°16'6 5.9
2016-Dec-06 17:33N 37°30' W 122°13'4 4.2
2016-Dec-06 16:33N 37°34' W 122°14'7 7.0
2016-Dec-06 15:33N 37°40' W 122°19'7 7.3
2016-Dec-06 14:33N 37°47' W 122°22'7 7.0
2016-Dec-06 13:33N 37°53' W 122°25'6 6.2
2016-Dec-06 12:32N 37°60' W 122°25'6 6.2
2016-Dec-06 11:33N 38°03' W 122°18'7 6.9
2016-Dec-06 10:32N 38°02' W 122°09'13 3.2
2016-Dec-06 06:33N 38°03' W 121°53'10 4.5
2016-Dec-06 04:27N 38°03' W 122°05'5 4.5
2016-Dec-06 03:26N 38°03' W 122°11'5 5.3
2016-Dec-06 02:33N 38°03' W 122°17'6 5.6
2016-Dec-06 01:33N 38°01' W 122°23'6 5.6
2016-Dec-06 00:34N 37°56' W 122°26'7 6.6
2016-Dec-05 23:33N 37°49' W 122°23'6 6.4
2016-Dec-05 22:33N 37°43' W 122°21'6 5.8
2016-Dec-05 21:33N 37°38' W 122°18'6 5.7
2016-Dec-05 20:33N 37°34' W 122°13'3 3.1
2016-Dec-05 19:33N 37°31' W 122°13'8 7.9
2016-Dec-05 18:33N 37°38' W 122°18'9 8.7
2016-Dec-05 17:33N 37°46' W 122°22'1 1.1
2016-Dec-05 16:33N 37°46' W 122°23'0 0.0
2016-Dec-05 15:34N 37°46' W 122°23'0 0.0
2016-Dec-05 14:33N 37°46' W 122°23'3 3.5
2016-Dec-05 13:34N 37°43' W 122°21'8 8.0
2016-Dec-05 12:34N 37°36' W 122°17'6 6.0
2016-Dec-05 11:34N 37°31' W 122°12'2 2.2
2016-Dec-05 10:33N 37°33' W 122°12'0 0.1
2016-Dec-05 09:33N 37°33' W 122°12'3 3.0
2016-Dec-05 08:33N 37°30' W 122°13'0 0.1
2016-Dec-05 07:33N 37°30' W 122°13'4 3.8
2016-Dec-05 06:32N 37°34' W 122°14'3 3.1
2016-Dec-05 05:34N 37°31' W 122°12'2 1.6
2016-Dec-05 04:34N 37°33' W 122°12'7 7.1
2016-Dec-05 03:34N 37°38' W 122°18'7 7.3
2016-Dec-05 02:33N 37°45' W 122°21'7 6.8
2016-Dec-05 01:33N 37°51' W 122°24'9 8.9
2016-Dec-05 00:32N 38°00' W 122°24'8 7.8
2016-Dec-04 23:33N 38°04' W 122°15'4 1.1
2016-Dec-04 20:19N 38°03' W 122°11'5 6.2
2016-Dec-04 19:33N 38°04' W 122°17'6 6.1
2016-Dec-04 18:33N 38°01' W 122°24'6 5.9
2016-Dec-04 17:33N 37°55' W 122°26'5 4.7
2016-Dec-04 16:33N 37°51' W 122°24'8 7.5
2016-Dec-04 15:33N 37°44' W 122°21'6 6.2
2016-Dec-04 14:33N 37°38' W 122°18'6 6.3
2016-Dec-04 13:33N 37°34' W 122°12'3 2.8
2016-Dec-04 12:33N 37°31' W 122°13'3 3.0
2016-Dec-04 11:33N 37°34' W 122°13'0 0.2
2016-Dec-04 10:33N 37°34' W 122°12'3 3.2
2016-Dec-04 09:33N 37°30' W 122°13'0 0.1
2016-Dec-04 08:33N 37°31' W 122°13'0 0.1
2016-Dec-04 07:33N 37°30' W 122°13'0 0.0
2016-Dec-04 06:33N 37°30' W 122°13'0 0.0
2016-Dec-04 05:33N 37°30' W 122°13'0 0.1
2016-Dec-04 04:31N 37°30' W 122°13'3 3.3
2016-Dec-04 03:33N 37°34' W 122°12'7 7.1
2016-Dec-04 02:33N 37°39' W 122°18'7 7.4
2016-Dec-04 01:33N 37°45' W 122°22'4 3.5
2016-Dec-04 00:33N 37°49' W 122°24'1 0.8
2016-Dec-03 23:33N 37°49' W 122°25'0 0.2
2016-Dec-03 22:33N 37°49' W 122°25'3 2.8
2016-Dec-03 21:33N 37°46' W 122°23'0 0.4
2016-Dec-03 20:33N 37°46' W 122°23'8 7.7
2016-Dec-03 19:33N 37°39' W 122°19'2 2.1
2016-Dec-03 18:33N 37°41' W 122°20'6 6.2
2016-Dec-03 17:33N 37°36' W 122°16'5 5.4
2016-Dec-03 16:33N 37°31' W 122°12'1 0.7
2016-Dec-03 15:33N 37°32' W 122°12'6 6.3
2016-Dec-03 14:33N 37°37' W 122°17'7 7.3
2016-Dec-03 13:33N 37°43' W 122°21'7 6.6
2016-Dec-03 12:33N 37°50' W 122°23'8 7.5
2016-Dec-03 11:33N 37°57' W 122°26'3 3.0
2016-Dec-03 10:31N 37°60' W 122°25'6 5.9
2016-Dec-03 09:33N 37°54' W 122°25'7 6.6
2016-Dec-03 08:33N 37°48' W 122°23'5 4.9
2016-Dec-03 07:33N 37°43' W 122°21'5 5.0
2016-Dec-03 06:33N 37°39' W 122°19'5 5.1
2016-Dec-03 05:32N 37°35' W 122°14'4 4.4
2016-Dec-03 04:33N 37°31' W 122°13'3 3.0
2016-Dec-03 03:33N 37°33' W 122°12'7 6.5
2016-Dec-03 02:33N 37°38' W 122°18'7 6.8
2016-Dec-03 01:33N 37°44' W 122°21'6 6.1
2016-Dec-03 00:33N 37°50' W 122°24'3 3.2
2016-Dec-02 23:33N 37°53' W 122°24'3 3.3
2016-Dec-02 22:33N 37°50' W 122°23'8 7.6
2016-Dec-02 21:33N 37°42' W 122°21'6 6.5
2016-Dec-02 20:33N 37°37' W 122°17'6 5.9
2016-Dec-02 19:33N 37°33' W 122°12'0 0.3
2016-Dec-02 18:33N 37°32' W 122°12'6 6.1
2016-Dec-02 17:33N 37°37' W 122°17'9 9.2
2016-Dec-02 16:34N 37°45' W 122°21'5 4.6
2016-Dec-02 15:33N 37°50' W 122°22'5 5.3
2016-Dec-02 14:33N 37°54' W 122°25'4 3.9
2016-Dec-02 13:33N 37°51' W 122°24'6 6.0
2016-Dec-02 12:34N 37°45' W 122°22'7 7.3
2016-Dec-02 11:33N 37°38' W 122°18'7 6.6
2016-Dec-02 10:33N 37°34' W 122°12'3 3.1
2016-Dec-02 09:33N 37°30' W 122°13'0 0.0
2016-Dec-02 08:33N 37°30' W 122°13'2 2.0
2016-Dec-02 07:32N 37°32' W 122°12'0 0.3
2016-Dec-02 06:33N 37°33' W 122°12'1 1.3
2016-Dec-02 05:32N 37°31' W 122°12'8 7.7
2016-Dec-02 04:33N 37°38' W 122°18'9 8.5
2016-Dec-02 03:34N 37°45' W 122°22'6 6.4
2016-Dec-02 02:34N 37°52' W 122°24'10 9.5
2016-Dec-02 01:29N 38°02' W 122°22'1 0.9
2016-Dec-02 00:30N 38°02' W 122°21'4 4.6
2016-Dec-01 23:33N 37°59' W 122°25'5 5.0
2016-Dec-01 22:33N 37°54' W 122°25'7 7.0
2016-Dec-01 21:34N 37°47' W 122°22'7 7.0
2016-Dec-01 20:34N 37°41' W 122°20'6 5.7
2016-Dec-01 19:34N 37°36' W 122°16'5 5.0
2016-Dec-01 18:33N 37°32' W 122°12'2 2.4
2016-Dec-01 17:33N 37°30' W 122°13'0 0.1
2016-Dec-01 16:32N 37°30' W 122°13'0 0.0
2016-Dec-01 15:33N 37°30' W 122°13'1 1.1
2016-Dec-01 14:33N 37°31' W 122°12'0 0.2
2016-Dec-01 13:33N 37°31' W 122°12'1 0.7
2016-Dec-01 12:33N 37°31' W 122°13'0 0.0
2016-Dec-01 11:33N 37°31' W 122°13'0 0.0
2016-Dec-01 10:33N 37°31' W 122°13'0 0.0
2016-Dec-01 09:30N 37°31' W 122°13'0 0.0
2016-Dec-01 08:33N 37°31' W 122°13'0 0.2
2016-Dec-01 07:33N 37°30' W 122°13'0 0.2
2016-Dec-01 06:33N 37°31' W 122°13'4 3.6
2016-Dec-01 05:33N 37°34' W 122°13'10 9.6
2016-Dec-01 04:33N 37°42' W 122°20'9 8.5
2016-Dec-01 03:33N 37°49' W 122°26'6 5.7
2016-Dec-01 02:33N 37°45' W 122°21'8 7.8
2016-Dec-01 01:33N 37°38' W 122°18'7 6.3
2016-Dec-01 00:28N 37°33' W 122°12'4 4.0
2016-Nov-30 23:33N 37°35' W 122°15'7 7.0
2016-Nov-30 22:33N 37°41' W 122°20'7 6.9
2016-Nov-30 21:33N 37°47' W 122°23'  
Track history (hours):
 
Tides and Currents Weather Stations Pressure Air Temp Water Temp Dewpoint Dewpoint Depression Visibility Wind Speed Wind Dir Waves Ship Positions

Solana

Owner: TAURUS MARINE, SAN FRANCISCO, CA. More information available from US FCC via Universal Licensing System and Coast Guard Vessel Documentation Center.

Last reported at 2016-Dec-10 21:33 UTC. Time now 2016-Dec-10 22:31 UTC.
Position N 37°50' W 122°21'.

Length 21 m; draft 3 m.

Type: Ship (hazmat cat A). MMSI: 366969740.

Date/timePositionNaut miles runAvg speedWind from/ knotsBaromVisibWave heightAir tempDewpointWater temp
2016-Dec-10 21:33N 37°50' W 122°21'7 7.4
2016-Dec-10 20:33N 37°43' W 122°20'7 7.0
2016-Dec-10 19:33N 37°36' W 122°16'5 4.9
2016-Dec-10 18:30N 37°33' W 122°12'2 1.8
2016-Dec-10 17:32N 37°31' W 122°12'2 1.6
2016-Dec-10 16:33N 37°32' W 122°12'1 0.6
2016-Dec-10 15:33N 37°32' W 122°12'0 0.1
2016-Dec-10 14:31N 37°32' W 122°12'0 0.1
2016-Dec-10 13:33N 37°32' W 122°12'0 0.2
2016-Dec-10 12:33N 37°32' W 122°12'0 0.0
2016-Dec-10 11:33N 37°32' W 122°12'0 0.1
2016-Dec-10 10:33N 37°32' W 122°12'1 0.7
2016-Dec-10 09:29N 37°31' W 122°13'0 0.2
2016-Dec-10 08:33N 37°31' W 122°13'3 2.8
2016-Dec-10 07:33N 37°33' W 122°11'3 2.9
2016-Dec-10 06:33N 37°31' W 122°13'0 0.3
2016-Dec-10 05:32N 37°30' W 122°13'0 0.1
2016-Dec-10 04:33N 37°30' W 122°13'0 0.1
2016-Dec-10 03:33N 37°30' W 122°13'0 0.1
2016-Dec-10 02:33N 37°30' W 122°13'2 2.0
2016-Dec-10 01:33N 37°32' W 122°12'1 1.4
2016-Dec-10 00:33N 37°33' W 122°12'3 2.8
2016-Dec-09 23:32N 37°31' W 122°13'1 1.2
2016-Dec-09 22:32N 37°32' W 122°12'6 6.2
2016-Dec-09 21:33N 37°36' W 122°17'7 6.5
2016-Dec-09 20:33N 37°42' W 122°20'6 5.9
2016-Dec-09 19:33N 37°48' W 122°21'2 1.6
2016-Dec-09 18:33N 37°50' W 122°21'4 4.1
2016-Dec-09 17:33N 37°46' W 122°21'7 6.6
2016-Dec-09 16:33N 37°39' W 122°19'6 5.8
2016-Dec-09 15:33N 37°35' W 122°14'4 3.9
2016-Dec-09 14:33N 37°31' W 122°12'1 0.8
2016-Dec-09 13:33N 37°30' W 122°13'0 0.0
2016-Dec-09 12:33N 37°30' W 122°13'0 0.0
2016-Dec-09 11:33N 37°30' W 122°13'0 0.0
2016-Dec-09 10:33N 37°30' W 122°13'0 0.0
2016-Dec-09 09:33N 37°30' W 122°13'0 0.1
2016-Dec-09 08:33N 37°30' W 122°13'0 0.1
2016-Dec-09 07:33N 37°31' W 122°13'0 0.1
2016-Dec-09 06:32N 37°31' W 122°13'0 0.2
2016-Dec-09 05:34N 37°30' W 122°13'0 0.1
2016-Dec-09 04:33N 37°30' W 122°13'0 0.1
2016-Dec-09 03:33N 37°30' W 122°13'0 0.0
2016-Dec-09 02:32N 37°30' W 122°13'3 3.2
2016-Dec-09 01:33N 37°33' W 122°11'3 3.1
2016-Dec-09 00:33N 37°30' W 122°13'4 3.7
2016-Dec-08 23:33N 37°34' W 122°13'4 3.7
2016-Dec-08 22:33N 37°30' W 122°13'0 0.0
2016-Dec-08 21:34N 37°30' W 122°13'0 0.1
2016-Dec-08 20:29N 37°31' W 122°13'0 0.1
2016-Dec-08 19:33N 37°31' W 122°13'0 0.0
2016-Dec-08 18:33N 37°31' W 122°13'0 0.1
2016-Dec-08 17:33N 37°31' W 122°13'0 0.1
2016-Dec-08 16:34N 37°30' W 122°13'3 2.9
2016-Dec-08 15:34N 37°33' W 122°12'3 2.9
2016-Dec-08 14:33N 37°30' W 122°13'0 0.0
2016-Dec-08 13:33N 37°30' W 122°13'3 2.6
2016-Dec-08 12:33N 37°33' W 122°11'1 1.3
2016-Dec-08 11:33N 37°32' W 122°12'1 1.1
2016-Dec-08 10:32N 37°33' W 122°12'8 7.8
2016-Dec-08 09:33N 37°38' W 122°18'8 8.2
2016-Dec-08 08:33N 37°46' W 122°22'8 8.1
2016-Dec-08 07:33N 37°54' W 122°24'8 8.3
2016-Dec-08 06:33N 38°02' W 122°22'23 3.6
2016-Dec-08 00:18N 38°03' W 121°53'10 5.4
2016-Dec-07 22:30N 38°03' W 122°05'5 4.6
2016-Dec-07 21:32N 38°03' W 122°11'5 4.8
2016-Dec-07 20:32N 38°03' W 122°17'5 5.0
2016-Dec-07 19:33N 38°01' W 122°23'5 5.2
2016-Dec-07 18:33N 37°57' W 122°26'6 6.1
2016-Dec-07 17:33N 37°51' W 122°24'8 8.4
2016-Dec-07 16:33N 37°43' W 122°20'7 7.3
2016-Dec-07 15:33N 37°36' W 122°17'6 6.0
2016-Dec-07 14:33N 37°31' W 122°12'1 1.3
2016-Dec-07 13:33N 37°30' W 122°13'5 4.9
2016-Dec-07 12:33N 37°35' W 122°15'6 5.7
2016-Dec-07 11:33N 37°39' W 122°19'5 5.3
2016-Dec-07 10:33N 37°44' W 122°21'6 6.2
2016-Dec-07 09:33N 37°50' W 122°23'6 5.9
2016-Dec-07 08:33N 37°56' W 122°26'5 4.6
2016-Dec-07 07:33N 38°01' W 122°24'5 5.0
2016-Dec-07 06:34N 38°03' W 122°19'11 1.8
2016-Dec-07 00:31N 38°03' W 122°05'6 6.7
2016-Dec-06 23:33N 38°04' W 122°13'7 7.1
2016-Dec-06 22:33N 38°02' W 122°22'7 6.9
2016-Dec-06 21:33N 37°56' W 122°26'7 7.0
2016-Dec-06 20:33N 37°49' W 122°23'14 7.2
2016-Dec-06 18:33N 37°36' W 122°16'6 5.9
2016-Dec-06 17:33N 37°30' W 122°13'4 4.2
2016-Dec-06 16:33N 37°34' W 122°14'7 7.0
2016-Dec-06 15:33N 37°40' W 122°19'7 7.3
2016-Dec-06 14:33N 37°47' W 122°22'7 7.0
2016-Dec-06 13:33N 37°53' W 122°25'6 6.2
2016-Dec-06 12:32N 37°60' W 122°25'6 6.2
2016-Dec-06 11:33N 38°03' W 122°18'7 6.9
2016-Dec-06 10:32N 38°02' W 122°09'13 3.2
2016-Dec-06 06:33N 38°03' W 121°53'10 4.5
2016-Dec-06 04:27N 38°03' W 122°05'5 4.5
2016-Dec-06 03:26N 38°03' W 122°11'5 5.3
2016-Dec-06 02:33N 38°03' W 122°17'6 5.6
2016-Dec-06 01:33N 38°01' W 122°23'6 5.6
2016-Dec-06 00:34N 37°56' W 122°26'7 6.6
2016-Dec-05 23:33N 37°49' W 122°23'6 6.4
2016-Dec-05 22:33N 37°43' W 122°21'6 5.8
2016-Dec-05 21:33N 37°38' W 122°18'6 5.7
2016-Dec-05 20:33N 37°34' W 122°13'3 3.1
2016-Dec-05 19:33N 37°31' W 122°13'8 7.9
2016-Dec-05 18:33N 37°38' W 122°18'9 8.7
2016-Dec-05 17:33N 37°46' W 122°22'1 1.1
2016-Dec-05 16:33N 37°46' W 122°23'0 0.0
2016-Dec-05 15:34N 37°46' W 122°23'0 0.0
2016-Dec-05 14:33N 37°46' W 122°23'3 3.5
2016-Dec-05 13:34N 37°43' W 122°21'8 8.0
2016-Dec-05 12:34N 37°36' W 122°17'6 6.0
2016-Dec-05 11:34N 37°31' W 122°12'2 2.2
2016-Dec-05 10:33N 37°33' W 122°12'0 0.1
2016-Dec-05 09:33N 37°33' W 122°12'3 3.0
2016-Dec-05 08:33N 37°30' W 122°13'0 0.1
2016-Dec-05 07:33N 37°30' W 122°13'4 3.8
2016-Dec-05 06:32N 37°34' W 122°14'3 3.1
2016-Dec-05 05:34N 37°31' W 122°12'2 1.6
2016-Dec-05 04:34N 37°33' W 122°12'7 7.1
2016-Dec-05 03:34N 37°38' W 122°18'7 7.3
2016-Dec-05 02:33N 37°45' W 122°21'7 6.8
2016-Dec-05 01:33N 37°51' W 122°24'9 8.9
2016-Dec-05 00:32N 38°00' W 122°24'8 7.8
2016-Dec-04 23:33N 38°04' W 122°15'4 1.1
2016-Dec-04 20:19N 38°03' W 122°11'5 6.2
2016-Dec-04 19:33N 38°04' W 122°17'6 6.1
2016-Dec-04 18:33N 38°01' W 122°24'6 5.9
2016-Dec-04 17:33N 37°55' W 122°26'5 4.7
2016-Dec-04 16:33N 37°51' W 122°24'8 7.5
2016-Dec-04 15:33N 37°44' W 122°21'6 6.2
2016-Dec-04 14:33N 37°38' W 122°18'6 6.3
2016-Dec-04 13:33N 37°34' W 122°12'3 2.8
2016-Dec-04 12:33N 37°31' W 122°13'3 3.0
2016-Dec-04 11:33N 37°34' W 122°13'0 0.2
2016-Dec-04 10:33N 37°34' W 122°12'3 3.2
2016-Dec-04 09:33N 37°30' W 122°13'0 0.1
2016-Dec-04 08:33N 37°31' W 122°13'0 0.1
2016-Dec-04 07:33N 37°30' W 122°13'0 0.0
2016-Dec-04 06:33N 37°30' W 122°13'0 0.0
2016-Dec-04 05:33N 37°30' W 122°13'0 0.1
2016-Dec-04 04:31N 37°30' W 122°13'3 3.3
2016-Dec-04 03:33N 37°34' W 122°12'7 7.1
2016-Dec-04 02:33N 37°39' W 122°18'7 7.4
2016-Dec-04 01:33N 37°45' W 122°22'4 3.5
2016-Dec-04 00:33N 37°49' W 122°24'1 0.8
2016-Dec-03 23:33N 37°49' W 122°25'0 0.2
2016-Dec-03 22:33N 37°49' W 122°25'3 2.8
2016-Dec-03 21:33N 37°46' W 122°23'0 0.4
2016-Dec-03 20:33N 37°46' W 122°23'8 7.7
2016-Dec-03 19:33N 37°39' W 122°19'2 2.1
2016-Dec-03 18:33N 37°41' W 122°20'6 6.2
2016-Dec-03 17:33N 37°36' W 122°16'5 5.4
2016-Dec-03 16:33N 37°31' W 122°12'1 0.7
2016-Dec-03 15:33N 37°32' W 122°12'6 6.3
2016-Dec-03 14:33N 37°37' W 122°17'7 7.3
2016-Dec-03 13:33N 37°43' W 122°21'7 6.6
2016-Dec-03 12:33N 37°50' W 122°23'8 7.5
2016-Dec-03 11:33N 37°57' W 122°26'3 3.0
2016-Dec-03 10:31N 37°60' W 122°25'6 5.9
2016-Dec-03 09:33N 37°54' W 122°25'7 6.6
2016-Dec-03 08:33N 37°48' W 122°23'5 4.9
2016-Dec-03 07:33N 37°43' W 122°21'5 5.0
2016-Dec-03 06:33N 37°39' W 122°19'5 5.1
2016-Dec-03 05:32N 37°35' W 122°14'4 4.4
2016-Dec-03 04:33N 37°31' W 122°13'3 3.0
2016-Dec-03 03:33N 37°33' W 122°12'7 6.5
2016-Dec-03 02:33N 37°38' W 122°18'7 6.8
2016-Dec-03 01:33N 37°44' W 122°21'6 6.1
2016-Dec-03 00:33N 37°50' W 122°24'3 3.2
2016-Dec-02 23:33N 37°53' W 122°24'3 3.3
2016-Dec-02 22:33N 37°50' W 122°23'8 7.6
2016-Dec-02 21:33N 37°42' W 122°21'6 6.5
2016-Dec-02 20:33N 37°37' W 122°17'6 5.9
2016-Dec-02 19:33N 37°33' W 122°12'0 0.3
2016-Dec-02 18:33N 37°32' W 122°12'6 6.1
2016-Dec-02 17:33N 37°37' W 122°17'9 9.2
2016-Dec-02 16:34N 37°45' W 122°21'5 4.6
2016-Dec-02 15:33N 37°50' W 122°22'5 5.3
2016-Dec-02 14:33N 37°54' W 122°25'4 3.9
2016-Dec-02 13:33N 37°51' W 122°24'6 6.0
2016-Dec-02 12:34N 37°45' W 122°22'7 7.3
2016-Dec-02 11:33N 37°38' W 122°18'7 6.6
2016-Dec-02 10:33N 37°34' W 122°12'3 3.1
2016-Dec-02 09:33N 37°30' W 122°13'0 0.0
2016-Dec-02 08:33N 37°30' W 122°13'2 2.0
2016-Dec-02 07:32N 37°32' W 122°12'0 0.3
2016-Dec-02 06:33N 37°33' W 122°12'1 1.3
2016-Dec-02 05:32N 37°31' W 122°12'8 7.7
2016-Dec-02 04:33N 37°38' W 122°18'9 8.5
2016-Dec-02 03:34N 37°45' W 122°22'6 6.4
2016-Dec-02 02:34N 37°52' W 122°24'10 9.5
2016-Dec-02 01:29N 38°02' W 122°22'1 0.9
2016-Dec-02 00:30N 38°02' W 122°21'4 4.6
2016-Dec-01 23:33N 37°59' W 122°25'5 5.0
2016-Dec-01 22:33N 37°54' W 122°25'7 7.0
2016-Dec-01 21:34N 37°47' W 122°22'7 7.0
2016-Dec-01 20:34N 37°41' W 122°20'6 5.7
2016-Dec-01 19:34N 37°36' W 122°16'5 5.0
2016-Dec-01 18:33N 37°32' W 122°12'2 2.4
2016-Dec-01 17:33N 37°30' W 122°13'0 0.1
2016-Dec-01 16:32N 37°30' W 122°13'0 0.0
2016-Dec-01 15:33N 37°30' W 122°13'1 1.1
2016-Dec-01 14:33N 37°31' W 122°12'0 0.2
2016-Dec-01 13:33N 37°31' W 122°12'1 0.7
2016-Dec-01 12:33N 37°31' W 122°13'0 0.0
2016-Dec-01 11:33N 37°31' W 122°13'0 0.0
2016-Dec-01 10:33N 37°31' W 122°13'0 0.0
2016-Dec-01 09:30N 37°31' W 122°13'0 0.0
2016-Dec-01 08:33N 37°31' W 122°13'0 0.2
2016-Dec-01 07:33N 37°30' W 122°13'0 0.2
2016-Dec-01 06:33N 37°31' W 122°13'4 3.6
2016-Dec-01 05:33N 37°34' W 122°13'10 9.6
2016-Dec-01 04:33N 37°42' W 122°20'9 8.5
2016-Dec-01 03:33N 37°49' W 122°26'6 5.7
2016-Dec-01 02:33N 37°45' W 122°21'8 7.8
2016-Dec-01 01:33N 37°38' W 122°18'7 6.3
2016-Dec-01 00:28N 37°33' W 122°12'4 4.0
2016-Nov-30 23:33N 37°35' W 122°15'7 7.0
2016-Nov-30 22:33N 37°41' W 122°20'7 6.9
2016-Nov-30 21:33N 37°47' W 122°23'  

Dump ship's entire track history